FDX3003 KONT-KBFL
Flight info
| Callsign | FDX3003 |
|---|---|
| Flight time | 0h 57m |
| Altitude | 14000 |
| Route | DCT POM V264 ITSME V186 DARTS V459 LHS FASTO2 |
| Aircraft | C408/M-SDFGRY/S |
Departure
| Time | 2026-04-26 22:30 |
|---|---|
| Airport | Ontario International Airport (KONT) |
Arrival
| Time | 2026-04-26 23:27 |
|---|---|
| Airport | Meadows Field (KBFL) |
| Time | Latitude | Longitude | Altitude | Speed | Heading |
|---|---|---|---|---|---|
| 2026-04-26 22:14 | 34.05935 | -117.62327 | 942 ft | 0 kts | 46° |
| 2026-04-26 22:19 | 34.05935 | -117.62328 | 942 ft | 0 kts | 46° |
| 2026-04-26 22:22 | 34.05934 | -117.62328 | 942 ft | 0 kts | 46° |
| 2026-04-26 22:24 | 34.05935 | -117.62327 | 942 ft | 1 kts | 48° |
| 2026-04-26 22:25 | 34.05920 | -117.62276 | 942 ft | 12 kts | 132° |
| 2026-04-26 22:25 | 34.05872 | -117.62214 | 942 ft | 10 kts | 136° |
| 2026-04-26 22:25 | 34.05827 | -117.62198 | 942 ft | 8 kts | 173° |
| 2026-04-26 22:25 | 34.05797 | -117.62132 | 943 ft | 12 kts | 89° |
| 2026-04-26 22:26 | 34.05797 | -117.62009 | 942 ft | 17 kts | 91° |
| 2026-04-26 22:26 | 34.05795 | -117.61855 | 942 ft | 17 kts | 86° |
| 2026-04-26 22:26 | 34.05798 | -117.61718 | 941 ft | 14 kts | 90° |
| 2026-04-26 22:26 | 34.05797 | -117.61596 | 941 ft | 17 kts | 90° |
| 2026-04-26 22:27 | 34.05797 | -117.61432 | 940 ft | 22 kts | 90° |
| 2026-04-26 22:27 | 34.05798 | -117.61251 | 940 ft | 21 kts | 89° |
| 2026-04-26 22:27 | 34.05798 | -117.61078 | 941 ft | 19 kts | 90° |
| 2026-04-26 22:27 | 34.05799 | -117.60914 | 941 ft | 17 kts | 87° |
| 2026-04-26 22:28 | 34.05798 | -117.60783 | 942 ft | 13 kts | 92° |
| 2026-04-26 22:28 | 34.05797 | -117.60657 | 943 ft | 17 kts | 88° |
| 2026-04-26 22:28 | 34.05798 | -117.60496 | 942 ft | 21 kts | 90° |
| 2026-04-26 22:28 | 34.05798 | -117.60324 | 942 ft | 17 kts | 91° |
| 2026-04-26 22:29 | 34.05755 | -117.60247 | 943 ft | 10 kts | 180° |
| 2026-04-26 22:29 | 34.05689 | -117.60267 | 943 ft | 10 kts | 253° |
| 2026-04-26 22:29 | 34.05688 | -117.60477 | 944 ft | 55 kts | 270° |
| 2026-04-26 22:29 | 34.05685 | -117.61173 | 1023 ft | 104 kts | 266° |
| 2026-04-26 22:30 | 34.05721 | -117.62126 | 1429 ft | 110 kts | 282° |
| 2026-04-26 22:30 | 34.05892 | -117.62919 | 1949 ft | 91 kts | 272° |
| 2026-04-26 22:30 | 34.06002 | -117.63674 | 2265 ft | 95 kts | 274° |
| 2026-04-26 22:30 | 34.06106 | -117.64458 | 2612 ft | 94 kts | 272° |
| 2026-04-26 22:31 | 34.06204 | -117.65241 | 2933 ft | 96 kts | 276° |
| 2026-04-26 22:31 | 34.06306 | -117.66043 | 3300 ft | 95 kts | 276° |
| 2026-04-26 22:31 | 34.06404 | -117.66830 | 3677 ft | 95 kts | 277° |
| 2026-04-26 22:31 | 34.06501 | -117.67623 | 4040 ft | 96 kts | 277° |
| 2026-04-26 22:32 | 34.06597 | -117.68417 | 4417 ft | 96 kts | 277° |
| 2026-04-26 22:32 | 34.06692 | -117.69203 | 4769 ft | 97 kts | 277° |
| 2026-04-26 22:32 | 34.06786 | -117.70014 | 5160 ft | 97 kts | 277° |
| 2026-04-26 22:32 | 34.06883 | -117.70826 | 5582 ft | 97 kts | 276° |
| 2026-04-26 22:33 | 34.06980 | -117.71622 | 5990 ft | 97 kts | 276° |
| 2026-04-26 22:33 | 34.07177 | -117.73245 | 6780 ft | 99 kts | 276° |
| 2026-04-26 22:33 | 34.07275 | -117.74064 | 7173 ft | 99 kts | 276° |
| 2026-04-26 22:34 | 34.07372 | -117.74889 | 7563 ft | 100 kts | 276° |
| 2026-04-26 22:34 | 34.07472 | -117.75723 | 7970 ft | 100 kts | 276° |
| 2026-04-26 22:34 | 34.07572 | -117.76550 | 8344 ft | 100 kts | 275° |
| 2026-04-26 22:34 | 34.07673 | -117.77390 | 8750 ft | 101 kts | 275° |
| 2026-04-26 22:35 | 34.07775 | -117.78232 | 9134 ft | 102 kts | 275° |
| 2026-04-26 22:35 | 34.07833 | -117.79073 | 9522 ft | 101 kts | 265° |
| 2026-04-26 22:35 | 34.07815 | -117.79915 | 9928 ft | 100 kts | 269° |
| 2026-04-26 22:35 | 34.07801 | -117.80746 | 10333 ft | 99 kts | 269° |
| 2026-04-26 22:36 | 34.07789 | -117.81561 | 10739 ft | 96 kts | 269° |
| 2026-04-26 22:36 | 34.07777 | -117.82361 | 11145 ft | 94 kts | 270° |
| 2026-04-26 22:36 | 34.07765 | -117.83144 | 11548 ft | 93 kts | 270° |
| 2026-04-26 22:36 | 34.07754 | -117.83917 | 11940 ft | 91 kts | 270° |
| 2026-04-26 22:37 | 34.07745 | -117.84743 | 12045 ft | 110 kts | 270° |
| 2026-04-26 22:37 | 34.07732 | -117.85702 | 12039 ft | 117 kts | 270° |
| 2026-04-26 22:37 | 34.07718 | -117.86697 | 12032 ft | 120 kts | 270° |
| 2026-04-26 22:37 | 34.07704 | -117.87697 | 12039 ft | 121 kts | 270° |
| 2026-04-26 22:38 | 34.07688 | -117.88691 | 12034 ft | 123 kts | 270° |
| 2026-04-26 22:38 | 34.07671 | -117.89716 | 12037 ft | 123 kts | 270° |
| 2026-04-26 22:38 | 34.07655 | -117.90756 | 12037 ft | 124 kts | 270° |
| 2026-04-26 22:38 | 34.07638 | -117.91783 | 12038 ft | 124 kts | 270° |
| 2026-04-26 22:39 | 34.07622 | -117.92838 | 12038 ft | 125 kts | 270° |
| 2026-04-26 22:39 | 34.07606 | -117.93877 | 12041 ft | 125 kts | 270° |
| 2026-04-26 22:39 | 34.07590 | -117.94909 | 12036 ft | 125 kts | 270° |
| 2026-04-26 22:39 | 34.07573 | -117.95964 | 12035 ft | 124 kts | 270° |
| 2026-04-26 22:40 | 34.07556 | -117.96995 | 12037 ft | 124 kts | 270° |
| 2026-04-26 22:40 | 34.07540 | -117.98042 | 12018 ft | 125 kts | 270° |
| 2026-04-26 22:40 | 34.07523 | -117.99092 | 12018 ft | 125 kts | 270° |
| 2026-04-26 22:40 | 34.07514 | -118.00135 | 12015 ft | 124 kts | 274° |
| 2026-04-26 22:41 | 34.07702 | -118.01152 | 12013 ft | 125 kts | 288° |
| 2026-04-26 22:41 | 34.08009 | -118.02128 | 12014 ft | 125 kts | 287° |
| 2026-04-26 22:41 | 34.08311 | -118.03112 | 12014 ft | 125 kts | 288° |
| 2026-04-26 22:41 | 34.08611 | -118.04094 | 12016 ft | 126 kts | 288° |
| 2026-04-26 22:42 | 34.08911 | -118.05073 | 12020 ft | 133 kts | 288° |
| 2026-04-26 22:42 | 34.09243 | -118.06152 | 12017 ft | 137 kts | 288° |
| 2026-04-26 22:42 | 34.09571 | -118.07223 | 12022 ft | 139 kts | 288° |
| 2026-04-26 22:42 | 34.09908 | -118.08317 | 12017 ft | 139 kts | 288° |
| 2026-04-26 22:43 | 34.10245 | -118.09415 | 12018 ft | 140 kts | 288° |
| 2026-04-26 22:43 | 34.10579 | -118.10509 | 12019 ft | 140 kts | 288° |
| 2026-04-26 22:43 | 34.10877 | -118.11480 | 12020 ft | 140 kts | 288° |
| 2026-04-26 22:43 | 34.11210 | -118.12569 | 12018 ft | 140 kts | 288° |
| 2026-04-26 22:44 | 34.11552 | -118.13686 | 12019 ft | 140 kts | 288° |
| 2026-04-26 22:44 | 34.11889 | -118.14786 | 12019 ft | 140 kts | 288° |
| 2026-04-26 22:44 | 34.12228 | -118.15892 | 12019 ft | 140 kts | 288° |
| 2026-04-26 22:44 | 34.12561 | -118.16984 | 12017 ft | 140 kts | 288° |
| 2026-04-26 22:45 | 34.12900 | -118.18091 | 12005 ft | 141 kts | 287° |
| 2026-04-26 22:45 | 34.13236 | -118.19195 | 12006 ft | 141 kts | 288° |
| 2026-04-26 22:45 | 34.13576 | -118.20311 | 12007 ft | 141 kts | 288° |
| 2026-04-26 22:45 | 34.13898 | -118.21364 | 12007 ft | 141 kts | 288° |
| 2026-04-26 22:46 | 34.14247 | -118.22506 | 12007 ft | 141 kts | 288° |
| 2026-04-26 22:46 | 34.14585 | -118.23613 | 12007 ft | 141 kts | 288° |
| 2026-04-26 22:46 | 34.14921 | -118.24720 | 12006 ft | 141 kts | 288° |
| 2026-04-26 22:46 | 34.15280 | -118.25823 | 12005 ft | 141 kts | 294° |
| 2026-04-26 22:47 | 34.15851 | -118.26788 | 12005 ft | 145 kts | 307° |
| 2026-04-26 22:47 | 34.16308 | -118.27283 | 12004 ft | 148 kts | 316° |
| 2026-04-26 22:47 | 34.17227 | -118.27903 | 11997 ft | 152 kts | 327° |
| 2026-04-26 22:47 | 34.18183 | -118.28450 | 11999 ft | 152 kts | 326° |
| 2026-04-26 22:48 | 34.19136 | -118.29004 | 12000 ft | 153 kts | 326° |
| 2026-04-26 22:48 | 34.20048 | -118.29534 | 11997 ft | 153 kts | 326° |
| 2026-04-26 22:48 | 34.21009 | -118.30091 | 11998 ft | 153 kts | 326° |
| 2026-04-26 22:48 | 34.21966 | -118.30644 | 12002 ft | 153 kts | 326° |
| 2026-04-26 22:49 | 34.22924 | -118.31202 | 11999 ft | 154 kts | 326° |
| 2026-04-26 22:49 | 34.23886 | -118.31762 | 11999 ft | 154 kts | 326° |
| 2026-04-26 22:49 | 34.24840 | -118.32314 | 11998 ft | 154 kts | 326° |
| 2026-04-26 22:49 | 34.25800 | -118.32871 | 11993 ft | 153 kts | 326° |
| 2026-04-26 22:50 | 34.26756 | -118.33427 | 11986 ft | 153 kts | 326° |
| 2026-04-26 22:50 | 34.27712 | -118.33983 | 11983 ft | 153 kts | 326° |
| 2026-04-26 22:50 | 34.28672 | -118.34541 | 11998 ft | 152 kts | 326° |
| 2026-04-26 22:50 | 34.29306 | -118.34909 | 12000 ft | 152 kts | 326° |
| 2026-04-26 22:51 | 34.30263 | -118.35466 | 11999 ft | 153 kts | 326° |
| 2026-04-26 22:51 | 34.31214 | -118.36019 | 11997 ft | 152 kts | 326° |
| 2026-04-26 22:51 | 34.32172 | -118.36576 | 11999 ft | 153 kts | 327° |
| 2026-04-26 22:51 | 34.33123 | -118.37131 | 11999 ft | 151 kts | 326° |
| 2026-04-26 22:52 | 34.34066 | -118.37680 | 11996 ft | 154 kts | 327° |
| 2026-04-26 22:52 | 34.35028 | -118.38239 | 11996 ft | 153 kts | 327° |
| 2026-04-26 22:52 | 34.35992 | -118.38801 | 11999 ft | 154 kts | 327° |
| 2026-04-26 22:52 | 34.36862 | -118.39307 | 12001 ft | 154 kts | 327° |
| 2026-04-26 22:53 | 34.37296 | -118.39559 | 11984 ft | 155 kts | 327° |
| 2026-04-26 22:53 | 34.38244 | -118.40109 | 11985 ft | 154 kts | 327° |
| 2026-04-26 22:53 | 34.39207 | -118.40674 | 11997 ft | 154 kts | 327° |
| 2026-04-26 22:53 | 34.40104 | -118.41196 | 11996 ft | 154 kts | 327° |
| 2026-04-26 22:54 | 34.41054 | -118.41749 | 11997 ft | 153 kts | 327° |
| 2026-04-26 22:54 | 34.42015 | -118.42310 | 11996 ft | 154 kts | 327° |
| 2026-04-26 22:54 | 34.42977 | -118.42871 | 11984 ft | 153 kts | 327° |
| 2026-04-26 22:54 | 34.43942 | -118.43434 | 11984 ft | 154 kts | 327° |
| 2026-04-26 22:55 | 34.44908 | -118.43999 | 11983 ft | 155 kts | 327° |
| 2026-04-26 22:55 | 34.45851 | -118.44548 | 11982 ft | 154 kts | 327° |
| 2026-04-26 22:55 | 34.46821 | -118.45114 | 11987 ft | 154 kts | 327° |
| 2026-04-26 22:55 | 34.47781 | -118.45678 | 11978 ft | 153 kts | 326° |
| 2026-04-26 22:56 | 34.48745 | -118.46238 | 11980 ft | 154 kts | 327° |
| 2026-04-26 22:56 | 34.49711 | -118.46805 | 11989 ft | 154 kts | 327° |
| 2026-04-26 22:56 | 34.50670 | -118.47366 | 11982 ft | 153 kts | 327° |
| 2026-04-26 22:56 | 34.51638 | -118.47933 | 11982 ft | 154 kts | 327° |
| 2026-04-26 22:57 | 34.52576 | -118.48482 | 11988 ft | 154 kts | 327° |
| 2026-04-26 22:57 | 34.53438 | -118.48984 | 11985 ft | 155 kts | 327° |
| 2026-04-26 22:57 | 34.54081 | -118.49364 | 11989 ft | 155 kts | 327° |
| 2026-04-26 22:57 | 34.54536 | -118.49630 | 11982 ft | 155 kts | 327° |
| 2026-04-26 22:58 | 34.55129 | -118.49978 | 11991 ft | 155 kts | 327° |
| 2026-04-26 22:58 | 34.56104 | -118.50544 | 11982 ft | 155 kts | 327° |
| 2026-04-26 22:58 | 34.57072 | -118.51110 | 11984 ft | 155 kts | 327° |
| 2026-04-26 22:58 | 34.58041 | -118.51679 | 11974 ft | 154 kts | 328° |
| 2026-04-26 22:59 | 34.58290 | -118.51822 | 11980 ft | 154 kts | 328° |
| 2026-04-26 22:59 | 34.59271 | -118.52400 | 11981 ft | 151 kts | 327° |
| 2026-04-26 22:59 | 34.60221 | -118.52959 | 11979 ft | 154 kts | 328° |
| 2026-04-26 22:59 | 34.61204 | -118.53525 | 11983 ft | 154 kts | 327° |
| 2026-04-26 23:00 | 34.62161 | -118.54094 | 11988 ft | 156 kts | 327° |
| 2026-04-26 23:00 | 34.63128 | -118.54667 | 11980 ft | 155 kts | 328° |
| 2026-04-26 23:00 | 34.64103 | -118.55231 | 11980 ft | 155 kts | 327° |
| 2026-04-26 23:00 | 34.65070 | -118.55801 | 11980 ft | 155 kts | 327° |
| 2026-04-26 23:01 | 34.66033 | -118.56366 | 11982 ft | 155 kts | 327° |
| 2026-04-26 23:01 | 34.67013 | -118.56941 | 11982 ft | 156 kts | 328° |
| 2026-04-26 23:01 | 34.67986 | -118.57512 | 11988 ft | 155 kts | 327° |
| 2026-04-26 23:01 | 34.68847 | -118.58255 | 11986 ft | 150 kts | 313° |
| 2026-04-26 23:02 | 34.69644 | -118.59074 | 11980 ft | 153 kts | 315° |
| 2026-04-26 23:02 | 34.70469 | -118.59905 | 11979 ft | 150 kts | 315° |
| 2026-04-26 23:02 | 34.71260 | -118.60707 | 11986 ft | 150 kts | 315° |
| 2026-04-26 23:02 | 34.71977 | -118.61436 | 11984 ft | 151 kts | 315° |
| 2026-04-26 23:03 | 34.72729 | -118.62202 | 11991 ft | 152 kts | 315° |
| 2026-04-26 23:03 | 34.73542 | -118.63029 | 11988 ft | 152 kts | 315° |
| 2026-04-26 23:03 | 34.74352 | -118.63854 | 11990 ft | 152 kts | 315° |
| 2026-04-26 23:03 | 34.75127 | -118.64643 | 11983 ft | 155 kts | 315° |
| 2026-04-26 23:04 | 34.75961 | -118.65490 | 12004 ft | 158 kts | 315° |
| 2026-04-26 23:04 | 34.76808 | -118.66356 | 12003 ft | 159 kts | 315° |
| 2026-04-26 23:04 | 34.77660 | -118.67224 | 12002 ft | 160 kts | 315° |
| 2026-04-26 23:04 | 34.78518 | -118.68098 | 11998 ft | 161 kts | 315° |
| 2026-04-26 23:05 | 34.78857 | -118.68443 | 12000 ft | 161 kts | 315° |
| 2026-04-26 23:05 | 34.79717 | -118.69320 | 12001 ft | 161 kts | 315° |
| 2026-04-26 23:05 | 34.80578 | -118.70199 | 11998 ft | 162 kts | 315° |
| 2026-04-26 23:06 | 34.81441 | -118.71078 | 12000 ft | 162 kts | 315° |
| 2026-04-26 23:06 | 34.82305 | -118.71961 | 11999 ft | 162 kts | 315° |
| 2026-04-26 23:06 | 34.83165 | -118.72839 | 11997 ft | 161 kts | 315° |
| 2026-04-26 23:06 | 34.84024 | -118.73717 | 11996 ft | 161 kts | 315° |
| 2026-04-26 23:07 | 34.84882 | -118.74593 | 11994 ft | 161 kts | 315° |
| 2026-04-26 23:07 | 34.85739 | -118.75469 | 11988 ft | 161 kts | 316° |
| 2026-04-26 23:07 | 34.86582 | -118.76329 | 11997 ft | 161 kts | 315° |
| 2026-04-26 23:07 | 34.87443 | -118.77208 | 11999 ft | 162 kts | 315° |
| 2026-04-26 23:08 | 34.88306 | -118.78093 | 11998 ft | 162 kts | 315° |
| 2026-04-26 23:08 | 34.89168 | -118.78975 | 11999 ft | 163 kts | 316° |
| 2026-04-26 23:08 | 34.90022 | -118.79849 | 11993 ft | 161 kts | 315° |
| 2026-04-26 23:08 | 34.90885 | -118.80729 | 11996 ft | 162 kts | 315° |
| 2026-04-26 23:09 | 34.91746 | -118.81613 | 11998 ft | 162 kts | 316° |
| 2026-04-26 23:09 | 34.92617 | -118.82505 | 11999 ft | 164 kts | 315° |
| 2026-04-26 23:09 | 34.93486 | -118.83396 | 12000 ft | 164 kts | 315° |
| 2026-04-26 23:09 | 34.94355 | -118.84286 | 12000 ft | 163 kts | 316° |
| 2026-04-26 23:10 | 34.95212 | -118.85164 | 11998 ft | 163 kts | 316° |
| 2026-04-26 23:10 | 34.95565 | -118.85488 | 11989 ft | 164 kts | 322° |
| 2026-04-26 23:10 | 34.96490 | -118.85988 | 11984 ft | 169 kts | 339° |
| 2026-04-26 23:10 | 34.97673 | -118.86147 | 11986 ft | 173 kts | 355° |
| 2026-04-26 23:11 | 34.98874 | -118.86136 | 11987 ft | 173 kts | 354° |
| 2026-04-26 23:11 | 35.00097 | -118.86138 | 11811 ft | 171 kts | 354° |
| 2026-04-26 23:11 | 35.01245 | -118.86135 | 11635 ft | 163 kts | 354° |
| 2026-04-26 23:11 | 35.02370 | -118.86137 | 11497 ft | 160 kts | 354° |
| 2026-04-26 23:12 | 35.03488 | -118.86138 | 11362 ft | 160 kts | 354° |
| 2026-04-26 23:12 | 35.04599 | -118.86139 | 11232 ft | 159 kts | 354° |
| 2026-04-26 23:12 | 35.05706 | -118.86140 | 11106 ft | 159 kts | 354° |
| 2026-04-26 23:12 | 35.06812 | -118.86140 | 10976 ft | 159 kts | 354° |
| 2026-04-26 23:13 | 35.07902 | -118.86140 | 10852 ft | 159 kts | 355° |
| 2026-04-26 23:13 | 35.09004 | -118.86079 | 10719 ft | 161 kts | 7° |
| 2026-04-26 23:13 | 35.10087 | -118.85709 | 10596 ft | 162 kts | 11° |
| 2026-04-26 23:13 | 35.11168 | -118.85323 | 10473 ft | 162 kts | 12° |
| 2026-04-26 23:14 | 35.12252 | -118.84938 | 10348 ft | 162 kts | 12° |
| 2026-04-26 23:14 | 35.13330 | -118.84559 | 10225 ft | 162 kts | 12° |
| 2026-04-26 23:14 | 35.13722 | -118.84422 | 10180 ft | 162 kts | 12° |
| 2026-04-26 23:14 | 35.14809 | -118.84045 | 10033 ft | 163 kts | 12° |
| 2026-04-26 23:15 | 35.15898 | -118.83677 | 9859 ft | 164 kts | 12° |
| 2026-04-26 23:15 | 35.17007 | -118.83306 | 9689 ft | 164 kts | 12° |
| 2026-04-26 23:15 | 35.18104 | -118.82948 | 9511 ft | 163 kts | 12° |
| 2026-04-26 23:15 | 35.19200 | -118.82601 | 9338 ft | 163 kts | 12° |
| 2026-04-26 23:16 | 35.20279 | -118.82262 | 9166 ft | 163 kts | 11° |
| 2026-04-26 23:16 | 35.21375 | -118.81923 | 8992 ft | 162 kts | 12° |
| 2026-04-26 23:16 | 35.22471 | -118.81590 | 8818 ft | 163 kts | 12° |
| 2026-04-26 23:16 | 35.23569 | -118.81259 | 8643 ft | 162 kts | 12° |
| 2026-04-26 23:17 | 35.24661 | -118.80928 | 8462 ft | 162 kts | 12° |
| 2026-04-26 23:17 | 35.25742 | -118.80600 | 8307 ft | 161 kts | 12° |
| 2026-04-26 23:17 | 35.26828 | -118.80274 | 8156 ft | 160 kts | 12° |
| 2026-04-26 23:17 | 35.27895 | -118.79953 | 8007 ft | 159 kts | 12° |
| 2026-04-26 23:18 | 35.28969 | -118.79628 | 7857 ft | 159 kts | 12° |
| 2026-04-26 23:18 | 35.30042 | -118.79304 | 7707 ft | 159 kts | 12° |
| 2026-04-26 23:18 | 35.31120 | -118.78984 | 7558 ft | 159 kts | 12° |
| 2026-04-26 23:18 | 35.32189 | -118.78671 | 7405 ft | 158 kts | 12° |
| 2026-04-26 23:19 | 35.33256 | -118.78358 | 7258 ft | 158 kts | 11° |
| 2026-04-26 23:19 | 35.34324 | -118.78043 | 7110 ft | 158 kts | 12° |
| 2026-04-26 23:19 | 35.35390 | -118.77733 | 6960 ft | 157 kts | 12° |
| 2026-04-26 23:19 | 35.36455 | -118.77414 | 6808 ft | 158 kts | 12° |
| 2026-04-26 23:20 | 35.37506 | -118.77114 | 6661 ft | 156 kts | 11° |
| 2026-04-26 23:20 | 35.38577 | -118.77004 | 6504 ft | 155 kts | 351° |
| 2026-04-26 23:20 | 35.39588 | -118.77454 | 6395 ft | 152 kts | 329° |
| 2026-04-26 23:20 | 35.40422 | -118.78200 | 6290 ft | 150 kts | 313° |
| 2026-04-26 23:21 | 35.40989 | -118.79253 | 6187 ft | 148 kts | 290° |
| 2026-04-26 23:21 | 35.41186 | -118.80479 | 6083 ft | 147 kts | 269° |
| 2026-04-26 23:21 | 35.41099 | -118.81729 | 5986 ft | 147 kts | 264° |
| 2026-04-26 23:21 | 35.40998 | -118.82970 | 5888 ft | 147 kts | 264° |
| 2026-04-26 23:22 | 35.40895 | -118.84219 | 5788 ft | 147 kts | 264° |
| 2026-04-26 23:22 | 35.40789 | -118.85460 | 5689 ft | 147 kts | 264° |
| 2026-04-26 23:22 | 35.40680 | -118.86702 | 5586 ft | 146 kts | 263° |
| 2026-04-26 23:22 | 35.40570 | -118.87943 | 5488 ft | 146 kts | 263° |
| 2026-04-26 23:23 | 35.40459 | -118.89173 | 5387 ft | 146 kts | 263° |
| 2026-04-26 23:23 | 35.40345 | -118.90411 | 5289 ft | 146 kts | 263° |
| 2026-04-26 23:23 | 35.40227 | -118.91630 | 5191 ft | 145 kts | 263° |
| 2026-04-26 23:23 | 35.40098 | -118.92869 | 5089 ft | 144 kts | 259° |
| 2026-04-26 23:24 | 35.39906 | -118.94054 | 4982 ft | 144 kts | 263° |
| 2026-04-26 23:24 | 35.39984 | -118.95275 | 4644 ft | 139 kts | 285° |
| 2026-04-26 23:24 | 35.40280 | -118.96355 | 4253 ft | 127 kts | 289° |
| 2026-04-26 23:24 | 35.40564 | -118.97310 | 3861 ft | 115 kts | 289° |
| 2026-04-26 23:25 | 35.40839 | -118.98228 | 3455 ft | 116 kts | 289° |
| 2026-04-26 23:25 | 35.40976 | -118.99229 | 2938 ft | 125 kts | 266° |
| 2026-04-26 23:25 | 35.40863 | -119.00297 | 2408 ft | 129 kts | 266° |
| 2026-04-26 23:25 | 35.40980 | -119.01432 | 1789 ft | 136 kts | 285° |
| 2026-04-26 23:26 | 35.41308 | -119.02498 | 1329 ft | 129 kts | 294° |
| 2026-04-26 23:26 | 35.41715 | -119.03424 | 965 ft | 114 kts | 300° |
| 2026-04-26 23:26 | 35.42179 | -119.04147 | 724 ft | 113 kts | 314° |
| 2026-04-26 23:26 | 35.42713 | -119.04804 | 541 ft | 102 kts | 311° |
| 2026-04-26 23:27 | 35.43177 | -119.05369 | 479 ft | 85 kts | 313° |
| 2026-04-26 23:27 | 35.43496 | -119.05752 | 487 ft | 38 kts | 316° |
| 2026-04-26 23:27 | 35.43576 | -119.05896 | 491 ft | 8 kts | 236° |